createdAt,value
2022-09-20T00:01:22.839Z,1.17
2022-09-20T00:03:52.546Z,0.82
2022-09-20T00:06:22.331Z,0.90
2022-09-20T00:08:51.032Z,1.20
2022-09-20T00:11:21.092Z,1.13
2022-09-20T00:13:51.947Z,1.25
2022-09-20T00:16:24.873Z,2.08
2022-09-20T00:18:54.596Z,1.25
2022-09-20T00:21:25.109Z,1.50
2022-09-20T00:23:53.971Z,1.52
2022-09-20T00:26:22.839Z,1.10
2022-09-20T00:28:51.961Z,1.05
2022-09-20T00:31:21.587Z,1.00
2022-09-20T00:34:07.436Z,1.58
2022-09-20T00:36:35.591Z,1.48
2022-09-20T00:39:05.121Z,2.00
2022-09-20T00:41:34.252Z,2.97
2022-09-20T00:44:03.947Z,2.30
2022-09-20T00:46:38.998Z,1.52
2022-09-20T00:49:15.116Z,1.40
2022-09-20T00:51:46.964Z,1.40
2022-09-20T00:54:20.562Z,1.63
2022-09-20T00:56:49.589Z,1.35
2022-09-20T00:59:21.003Z,1.20
2022-09-20T01:01:54.335Z,2.15
2022-09-20T01:04:27.134Z,1.40
2022-09-20T01:06:58.035Z,1.77
2022-09-20T01:09:26.202Z,1.98
2022-09-20T01:11:57.044Z,1.88
2022-09-20T01:14:27.900Z,1.50
2022-09-20T01:17:00.850Z,1.50
2022-09-20T01:19:36.331Z,1.10
2022-09-20T01:22:09.257Z,1.70
2022-09-20T01:24:44.064Z,1.90
2022-09-20T01:27:23.220Z,1.27
2022-09-20T01:30:04.635Z,1.25
2022-09-20T01:32:44.103Z,1.83
2022-09-20T01:35:14.324Z,1.55
2022-09-20T01:38:02.855Z,1.52
2022-09-20T01:40:39.194Z,2.15
2022-09-20T01:43:16.167Z,2.00
2022-09-20T01:45:50.125Z,1.63
2022-09-20T01:48:28.657Z,1.60
2022-09-20T01:51:31.616Z,1.60
2022-09-20T01:54:19.221Z,2.30
2022-09-20T01:57:27.062Z,1.95
2022-09-20T02:00:09.629Z,1.48
2022-09-20T02:03:12.604Z,2.67
2022-09-20T02:06:13.447Z,1.63
2022-09-20T02:09:13.965Z,1.80
2022-09-20T02:12:07.059Z,1.77
2022-09-20T02:14:47.076Z,1.83
2022-09-20T02:17:19.280Z,1.92
2022-09-20T02:20:14.201Z,2.03
2022-09-20T02:22:58.728Z,1.98
2022-09-20T02:26:12.670Z,2.10
2022-09-20T02:28:56.893Z,1.95
2022-09-20T02:31:51.322Z,2.40
2022-09-20T02:34:52.510Z,3.05
2022-09-20T02:37:50.890Z,2.20
2022-09-20T02:40:35.499Z,2.22
2022-09-20T02:43:09.875Z,2.38
2022-09-20T02:45:45.417Z,1.92
2022-09-20T02:48:20.230Z,2.45
2022-09-20T02:50:55.671Z,2.40
2022-09-20T02:53:39.052Z,2.25
2022-09-20T02:56:14.866Z,2.85
2022-09-20T02:58:53.440Z,1.92
2022-09-20T03:01:34.073Z,1.90
2022-09-20T03:04:15.626Z,2.13
2022-09-20T03:06:50.678Z,2.20
2022-09-20T03:09:32.075Z,2.72
2022-09-20T03:12:11.142Z,2.15
2022-09-20T03:14:43.478Z,2.17
2022-09-20T03:17:23.113Z,2.40
2022-09-20T03:20:11.511Z,2.42
2022-09-20T03:22:50.847Z,2.00
2022-09-20T03:25:43.540Z,2.50
2022-09-20T03:28:24.283Z,2.10
2022-09-20T03:31:01.896Z,2.17
2022-09-20T03:33:41.344Z,2.20
2022-09-20T03:36:25.984Z,3.08
2022-09-20T03:39:22.089Z,2.33
2022-09-20T03:42:11.065Z,2.25
2022-09-20T03:44:55.020Z,2.28
2022-09-20T03:47:39.935Z,3.05
2022-09-20T03:50:46.267Z,2.72
2022-09-20T03:53:35.896Z,3.08
2022-09-20T03:56:38.872Z,2.38
2022-09-20T03:59:36.562Z,3.45
2022-09-20T04:02:25.401Z,3.40
2022-09-20T04:04:57.315Z,3.53
2022-09-20T04:07:32.647Z,3.50
2022-09-20T04:10:14.824Z,3.67
2022-09-20T04:15:28.566Z,3.10
2022-09-20T04:18:04.276Z,3.58
2022-09-20T04:20:39.790Z,4.63
2022-09-20T04:23:16.539Z,4.18
2022-09-20T04:25:49.576Z,4.28
2022-09-20T04:28:23.794Z,4.45
2022-09-20T04:30:57.855Z,4.53
2022-09-20T04:33:30.981Z,4.30
2022-09-20T04:36:30.434Z,5.47
2022-09-20T04:39:09.181Z,4.45
2022-09-20T04:42:00.828Z,4.72
2022-09-20T04:44:58.529Z,4.25
2022-09-20T04:47:52.160Z,4.57
2022-09-20T04:51:00.745Z,4.40
2022-09-20T04:53:51.385Z,3.53
2022-09-20T04:56:25.872Z,4.13
2022-09-20T04:59:07.808Z,4.13
2022-09-20T05:05:01.854Z,4.43
2022-09-20T05:08:11.306Z,6.55
2022-09-20T05:11:18.313Z,8.50
2022-09-20T05:14:12.800Z,6.97
2022-09-20T05:17:02.971Z,5.82
2022-09-20T05:19:39.577Z,4.85
2022-09-20T05:22:29.976Z,4.68
2022-09-20T05:25:30.399Z,4.50
2022-09-20T05:28:04.559Z,3.83
2022-09-20T05:30:38.963Z,4.85
2022-09-20T05:33:18.208Z,4.18
2022-09-20T05:35:54.539Z,4.60
2022-09-20T05:38:31.936Z,6.07
2022-09-20T05:41:10.440Z,4.80
2022-09-20T05:43:48.055Z,4.95
2022-09-20T05:46:24.123Z,5.43
2022-09-20T05:49:00.238Z,5.22
2022-09-20T05:51:58.614Z,6.80
2022-09-20T05:54:57.289Z,5.38
2022-09-20T05:57:40.853Z,5.72
2022-09-20T06:00:13.662Z,6.20
2022-09-20T06:02:51.418Z,5.90
2022-09-20T06:05:34.637Z,5.78
2022-09-20T06:08:28.332Z,5.63
2022-09-20T06:11:11.898Z,7.07
2022-09-20T06:14:09.426Z,5.93
2022-09-20T06:16:48.115Z,6.03
2022-09-20T06:19:26.557Z,7.20
2022-09-20T06:21:59.816Z,6.30
2022-09-20T06:24:37.805Z,6.35
2022-09-20T06:27:11.927Z,6.20
2022-09-20T06:29:45.897Z,6.43
2022-09-20T06:32:18.634Z,7.13
2022-09-20T06:34:48.011Z,5.68
2022-09-20T06:37:48.168Z,6.10
2022-09-20T06:40:51.606Z,4.75
2022-09-20T06:43:21.070Z,5.40
2022-09-20T06:45:49.254Z,4.72
2022-09-20T06:48:19.316Z,5.32
2022-09-20T06:50:47.414Z,5.35
2022-09-20T06:53:18.941Z,5.53
2022-09-20T06:55:47.894Z,4.75
2022-09-20T06:58:16.071Z,5.47
2022-09-20T07:00:46.093Z,4.75
2022-09-20T07:03:14.174Z,5.15
2022-09-20T07:05:42.468Z,5.63
2022-09-20T07:08:10.574Z,5.38
2022-09-20T07:10:38.804Z,5.07
2022-09-20T07:13:07.371Z,6.20
2022-09-20T07:15:36.186Z,4.82
2022-09-20T07:18:05.808Z,5.50
2022-09-20T07:20:34.040Z,4.80
2022-09-20T07:23:02.556Z,4.80
2022-09-20T07:25:31.302Z,5.10
2022-09-20T07:27:59.729Z,5.32
2022-09-20T07:30:27.887Z,4.53
2022-09-20T07:32:55.952Z,4.00
2022-09-20T07:35:25.654Z,4.25
2022-09-20T07:37:58.231Z,4.43
2022-09-20T07:40:27.382Z,4.50
2022-09-20T07:42:57.738Z,4.40
2022-09-20T07:45:25.894Z,3.75
2022-09-20T07:47:54.665Z,3.65
2022-09-20T07:50:22.798Z,3.22
2022-09-20T07:52:52.243Z,3.13
2022-09-20T07:55:20.323Z,3.30
2022-09-20T07:57:48.666Z,3.28
2022-09-20T08:00:16.988Z,2.80
2022-09-20T08:02:45.727Z,3.85
2022-09-20T08:05:14.061Z,3.28
2022-09-20T08:07:42.443Z,3.17
2022-09-20T08:10:12.742Z,2.88
2022-09-20T08:15:29.683Z,3.97
2022-09-20T08:17:57.790Z,3.22
2022-09-20T08:20:26.344Z,3.17
2022-09-20T08:23:19.396Z,2.63
2022-09-20T08:25:44.853Z,4.25
2022-09-20T08:28:12.949Z,3.85
2022-09-20T08:30:41.755Z,3.85
2022-09-20T08:33:11.530Z,3.50
2022-09-20T08:35:39.627Z,2.90
2022-09-20T08:41:01.791Z,3.00
2022-09-20T08:43:35.044Z,3.75
2022-09-20T08:46:05.756Z,4.90
2022-09-20T08:48:35.158Z,5.07
2022-09-20T08:51:05.905Z,4.80
2022-09-20T08:53:34.942Z,2.92
2022-09-20T08:56:04.810Z,2.30
2022-09-20T08:58:33.126Z,1.98
2022-09-20T09:01:01.851Z,2.30
2022-09-20T09:03:30.010Z,1.70
2022-09-20T09:05:58.896Z,1.85
2022-09-20T09:08:31.013Z,2.17
2022-09-20T09:11:01.161Z,1.60
2022-09-20T09:13:35.601Z,1.85
2022-09-20T09:16:10.806Z,2.53
2022-09-20T09:18:42.043Z,1.90
2022-09-20T09:21:18.111Z,2.00
2022-09-20T09:23:52.139Z,1.85
2022-09-20T09:26:23.456Z,2.00
2022-09-20T09:29:15.334Z,2.03
2022-09-20T09:31:45.120Z,1.48
2022-09-20T09:34:27.286Z,1.70
2022-09-20T09:39:26.731Z,1.33
2022-09-20T09:41:55.220Z,1.42
2022-09-20T09:44:27.660Z,1.40
2022-09-20T09:46:57.092Z,1.42
2022-09-20T09:49:26.697Z,1.23
2022-09-20T09:52:08.318Z,1.08
2022-09-20T09:54:39.366Z,1.60
2022-09-20T09:57:33.847Z,1.50
2022-09-20T10:00:19.657Z,1.40
2022-09-20T10:03:13.638Z,1.40
2022-09-20T10:05:51.942Z,1.40
2022-09-20T10:08:33.291Z,0.80
2022-09-20T10:11:14.619Z,1.17
2022-09-20T10:13:54.547Z,1.15
2022-09-20T10:16:34.713Z,1.00
2022-09-20T10:19:11.200Z,0.82
2022-09-20T10:21:50.896Z,0.90
2022-09-20T10:24:40.172Z,1.17
2022-09-20T10:27:19.255Z,0.68
2022-09-20T10:30:02.904Z,0.82
2022-09-20T10:32:49.850Z,0.85
2022-09-20T10:35:26.275Z,1.05
2022-09-20T10:38:13.210Z,0.98
2022-09-20T10:41:10.422Z,0.98
2022-09-20T10:43:51.212Z,1.08
2022-09-20T10:46:32.418Z,0.70
2022-09-20T10:49:16.081Z,0.57
2022-09-20T10:51:53.116Z,1.02
2022-09-20T10:54:32.997Z,0.88
2022-09-20T10:57:18.593Z,0.70
2022-09-20T10:59:54.699Z,0.88
2022-09-20T11:02:48.898Z,1.00
2022-09-20T11:05:27.392Z,0.50
2022-09-20T11:08:04.583Z,0.80
2022-09-20T11:10:37.972Z,1.27
2022-09-20T11:13:11.772Z,1.17
2022-09-20T11:15:47.044Z,0.85
2022-09-20T11:18:23.304Z,1.60
2022-09-20T11:20:59.102Z,0.52
2022-09-20T11:23:35.499Z,1.83
2022-09-20T11:26:11.613Z,2.83
2022-09-20T11:28:44.171Z,1.52
2022-09-20T11:31:19.193Z,0.88
2022-09-20T11:33:52.270Z,0.75
2022-09-20T11:36:28.191Z,1.10
2022-09-20T11:39:01.581Z,0.60
2022-09-20T11:41:31.300Z,0.90
2022-09-20T11:44:04.214Z,1.08
2022-09-20T11:46:37.309Z,0.50
2022-09-20T11:49:11.975Z,1.15
2022-09-20T11:52:01.608Z,0.80
2022-09-20T11:54:54.697Z,0.68
2022-09-20T11:57:23.967Z,0.60
2022-09-20T11:59:56.310Z,0.50
2022-09-20T12:02:29.486Z,0.63
2022-09-20T12:04:57.816Z,0.57
2022-09-20T12:07:31.200Z,0.65
2022-09-20T12:10:01.845Z,0.70
2022-09-20T12:12:37.491Z,0.52
2022-09-20T12:15:08.713Z,0.60
2022-09-20T12:18:16.650Z,0.73
2022-09-20T12:21:09.024Z,0.60
2022-09-20T12:24:20.773Z,0.90
2022-09-20T12:26:50.921Z,0.57
2022-09-20T12:29:54.762Z,0.98
2022-09-20T12:32:56.265Z,0.45
2022-09-20T12:36:14.519Z,0.50
2022-09-20T12:39:04.344Z,0.95
2022-09-20T12:41:49.159Z,1.23
2022-09-20T12:44:28.897Z,1.23
2022-09-20T12:47:00.036Z,1.10
2022-09-20T12:50:00.965Z,1.50
2022-09-20T12:52:53.723Z,1.30
2022-09-20T12:55:55.353Z,0.80
2022-09-20T12:58:53.646Z,0.50
2022-09-20T13:01:31.490Z,0.77
2022-09-20T13:04:37.205Z,0.70
2022-09-20T13:07:33.178Z,0.60
2022-09-20T13:10:06.571Z,0.57
2022-09-20T13:12:40.390Z,0.77
2022-09-20T13:15:18.289Z,0.60
2022-09-20T13:17:50.278Z,0.50
2022-09-20T13:20:24.138Z,0.80
2022-09-20T13:22:59.537Z,1.15
2022-09-20T13:25:28.635Z,0.60
2022-09-20T13:28:08.430Z,1.02
2022-09-20T13:30:43.983Z,1.00
2022-09-20T13:33:23.405Z,1.15
2022-09-20T13:35:57.190Z,0.60
2022-09-20T13:38:29.986Z,0.70
2022-09-20T13:41:05.649Z,0.82
2022-09-20T13:43:38.378Z,0.80
2022-09-20T13:46:12.635Z,1.33
2022-09-20T13:48:41.359Z,0.90
2022-09-20T13:51:19.201Z,0.68
2022-09-20T13:53:47.997Z,0.50
2022-09-20T13:56:21.593Z,0.90
2022-09-20T13:58:50.899Z,0.70
2022-09-20T14:01:29.096Z,1.40
2022-09-20T14:04:07.932Z,0.70
2022-09-20T14:06:37.135Z,1.33
2022-09-20T14:09:11.391Z,1.08
2022-09-20T14:11:41.103Z,0.65
2022-09-20T14:14:12.375Z,0.90
2022-09-20T14:16:46.800Z,0.93
2022-09-20T14:19:17.734Z,0.90
2022-09-20T14:21:46.383Z,0.85
2022-09-20T14:24:28.858Z,0.90
2022-09-20T14:27:22.907Z,0.85
2022-09-20T14:29:52.432Z,0.75
2022-09-20T14:32:35.072Z,1.08
2022-09-20T14:35:06.373Z,1.02
2022-09-20T14:37:36.737Z,0.80
2022-09-20T14:40:07.911Z,1.00
2022-09-20T14:42:38.169Z,0.63
2022-09-20T14:45:07.303Z,0.90
2022-09-20T14:47:50.995Z,1.00
2022-09-20T14:50:27.434Z,1.20
2022-09-20T14:53:26.677Z,0.80
2022-09-20T14:56:09.973Z,1.35
2022-09-20T14:59:08.082Z,0.68
2022-09-20T15:01:37.684Z,0.73
2022-09-20T15:04:21.262Z,0.95
2022-09-20T15:06:49.698Z,0.80
2022-09-20T15:09:19.682Z,0.93
2022-09-20T15:11:50.320Z,0.77
2022-09-20T15:14:18.643Z,0.40
2022-09-20T15:16:46.815Z,0.50
2022-09-20T15:19:16.759Z,0.95
2022-09-20T15:21:44.903Z,0.55
2022-09-20T15:24:13.052Z,0.60
2022-09-20T15:26:41.268Z,0.65
2022-09-20T15:29:11.679Z,1.13
2022-09-20T15:31:40.298Z,0.93
2022-09-20T15:34:08.742Z,0.70
2022-09-20T15:36:41.174Z,0.63
2022-09-20T15:39:10.258Z,0.55
2022-09-20T15:41:39.475Z,0.68
2022-09-20T15:44:08.107Z,0.75
2022-09-20T15:46:36.522Z,0.60
2022-09-20T15:49:06.736Z,0.60
2022-09-20T15:51:35.389Z,0.60
2022-09-20T15:54:07.106Z,0.65
2022-09-20T15:56:37.025Z,0.65
2022-09-20T15:59:06.951Z,0.65
2022-09-20T16:01:39.628Z,0.60
2022-09-20T16:04:10.072Z,0.80
2022-09-20T16:06:38.718Z,1.77
2022-09-20T16:09:08.852Z,1.13
2022-09-20T16:11:37.228Z,0.95
2022-09-20T16:14:05.654Z,1.55
2022-09-20T16:16:39.994Z,0.90
2022-09-20T16:19:20.764Z,1.23
2022-09-20T16:21:56.561Z,1.10
2022-09-20T16:24:28.205Z,1.17
2022-09-20T16:26:56.569Z,0.88
2022-09-20T16:29:25.916Z,0.90
2022-09-20T16:31:55.694Z,0.98
2022-09-20T16:34:28.403Z,1.02
2022-09-20T16:36:58.607Z,1.80
2022-09-20T16:39:29.100Z,1.20
2022-09-20T16:42:03.670Z,0.80
2022-09-20T16:44:32.348Z,1.83
2022-09-20T16:47:01.154Z,1.40
2022-09-20T16:49:29.474Z,0.73
2022-09-20T16:51:57.780Z,0.90
2022-09-20T16:54:31.707Z,1.20
2022-09-20T16:57:00.445Z,1.80
2022-09-20T16:59:28.711Z,1.15
2022-09-20T17:01:56.791Z,1.45
2022-09-20T17:04:24.922Z,1.95
2022-09-20T17:06:53.095Z,1.42
2022-09-20T17:09:21.747Z,0.77
2022-09-20T17:11:52.047Z,0.75
2022-09-20T17:14:22.084Z,0.85
2022-09-20T17:16:50.458Z,0.90
2022-09-20T17:19:20.065Z,1.00
2022-09-20T17:21:50.649Z,1.50
2022-09-20T17:24:20.283Z,0.80
2022-09-20T17:26:50.941Z,1.00
2022-09-20T17:29:20.583Z,1.20
2022-09-20T17:31:54.987Z,1.30
2022-09-20T17:34:25.418Z,0.80
2022-09-20T17:36:55.398Z,1.05
2022-09-20T17:39:23.806Z,0.95
2022-09-20T17:41:53.872Z,0.90
2022-09-20T17:44:22.035Z,1.08
2022-09-20T17:46:53.873Z,1.58
2022-09-20T17:49:23.569Z,1.60
2022-09-20T17:51:53.035Z,1.67
2022-09-20T17:54:22.052Z,1.95
2022-09-20T17:56:53.634Z,1.48
2022-09-20T17:59:22.415Z,1.17
2022-09-20T18:01:52.156Z,1.05
2022-09-20T18:04:21.386Z,1.33
2022-09-20T18:06:51.143Z,1.20
2022-09-20T18:09:21.239Z,1.95
2022-09-20T18:11:51.501Z,3.30
2022-09-20T18:14:23.328Z,1.17
2022-09-20T18:16:53.470Z,1.10
2022-09-20T18:19:22.724Z,1.40
2022-09-20T18:21:51.455Z,0.82
2022-09-20T18:24:19.807Z,0.82
2022-09-20T18:26:47.912Z,0.70
2022-09-20T18:29:18.181Z,1.90
2022-09-20T18:31:50.095Z,2.35
2022-09-20T18:36:49.929Z,2.10
2022-09-20T18:39:18.014Z,1.80
2022-09-20T18:41:46.130Z,1.33
2022-09-20T18:44:14.772Z,1.00
2022-09-20T18:46:42.998Z,1.00
2022-09-20T18:49:14.515Z,0.90
2022-09-20T18:51:43.201Z,0.90
2022-09-20T18:54:12.170Z,1.60
2022-09-20T18:56:42.060Z,1.60
2022-09-20T18:59:16.132Z,3.75
2022-09-20T19:02:23.012Z,3.83
2022-09-20T19:05:18.004Z,3.70
2022-09-20T19:07:54.979Z,3.65
2022-09-20T19:10:32.862Z,2.80
2022-09-20T19:13:12.506Z,1.98
2022-09-20T19:16:12.859Z,1.73
2022-09-20T19:19:10.118Z,1.55
2022-09-20T19:21:49.263Z,1.60
2022-09-20T19:24:28.159Z,2.28
2022-09-20T19:26:56.498Z,2.22
2022-09-20T19:29:26.864Z,2.72
2022-09-20T19:31:56.740Z,2.10
2022-09-20T19:34:26.728Z,2.08
2022-09-20T19:37:09.552Z,1.52
2022-09-20T19:39:55.393Z,1.70
2022-09-20T19:42:36.087Z,1.35
2022-09-20T19:45:13.670Z,1.58
2022-09-20T19:47:52.032Z,1.30
2022-09-20T19:50:28.413Z,1.20
2022-09-20T19:52:58.929Z,1.20
2022-09-20T19:55:27.416Z,1.17
2022-09-20T19:57:56.091Z,1.15
2022-09-20T20:00:24.833Z,0.85
2022-09-20T20:02:54.017Z,1.20
2022-09-20T20:05:25.647Z,0.93
2022-09-20T20:08:08.538Z,0.93
2022-09-20T20:10:45.604Z,0.70
2022-09-20T20:13:38.101Z,0.90
2022-09-20T20:16:11.890Z,0.98
2022-09-20T20:18:49.582Z,1.33
2022-09-20T20:21:27.188Z,1.10
2022-09-20T20:24:09.330Z,1.10
2022-09-20T20:29:05.834Z,2.03
2022-09-20T20:31:34.243Z,2.63
2022-09-20T20:34:02.354Z,1.85
2022-09-20T20:36:30.491Z,1.80
2022-09-20T20:38:59.988Z,1.40
2022-09-20T20:41:29.039Z,2.08
2022-09-20T20:43:57.293Z,3.67
2022-09-20T20:46:26.097Z,2.20
2022-09-20T20:48:54.296Z,1.60
2022-09-20T20:51:23.602Z,1.60
2022-09-20T20:53:53.886Z,1.40
2022-09-20T20:56:25.676Z,1.40
2022-09-20T20:58:54.246Z,5.57
2022-09-20T21:01:23.807Z,3.03
2022-09-20T21:03:53.161Z,2.30
2022-09-20T21:06:22.380Z,3.92
2022-09-20T21:08:50.549Z,4.28
2022-09-20T21:11:21.902Z,2.67
2022-09-20T21:13:51.539Z,2.97
2022-09-20T21:16:21.227Z,2.88
2022-09-20T21:18:50.879Z,4.40
2022-09-20T21:21:21.363Z,3.42
2022-09-20T21:23:52.115Z,2.10
2022-09-20T21:26:21.362Z,1.88
2022-09-20T21:28:54.465Z,1.27
2022-09-20T21:31:24.088Z,1.52
2022-09-20T21:33:52.235Z,2.38
2022-09-20T21:36:22.462Z,2.13
2022-09-20T21:38:50.878Z,1.70
2022-09-20T21:41:22.135Z,1.30
2022-09-20T21:43:55.246Z,1.90
2022-09-20T21:46:25.780Z,1.90
2022-09-20T21:48:53.966Z,2.15
2022-09-20T21:51:22.755Z,2.75
2022-09-20T21:53:54.153Z,2.22
2022-09-20T21:56:22.226Z,1.73
2022-09-20T21:58:50.341Z,1.60
2022-09-20T22:01:21.987Z,1.40
2022-09-20T22:03:51.829Z,1.73
2022-09-20T22:06:22.059Z,1.30
2022-09-20T22:08:51.836Z,1.95
2022-09-20T22:11:21.914Z,1.70
2022-09-20T22:13:52.031Z,1.52
2022-09-20T22:16:23.376Z,1.73
2022-09-20T22:18:52.346Z,1.85
2022-09-20T22:21:23.983Z,1.73
2022-09-20T22:23:57.322Z,1.55
2022-09-20T22:26:27.475Z,1.60
2022-09-20T22:28:55.839Z,1.55
2022-09-20T22:31:28.152Z,1.80
2022-09-20T22:33:58.386Z,1.65
2022-09-20T22:36:28.450Z,1.88
2022-09-20T22:38:56.663Z,1.73
2022-09-20T22:41:25.249Z,1.90
2022-09-20T22:43:53.397Z,1.80
2022-09-20T22:46:24.686Z,2.08
2022-09-20T22:48:52.846Z,1.17
2022-09-20T22:51:22.474Z,2.08
2022-09-20T22:53:51.102Z,1.77
2022-09-20T22:56:21.165Z,1.73
2022-09-20T22:58:50.911Z,1.58
2022-09-20T23:01:21.048Z,1.30
2022-09-20T23:03:56.171Z,2.00
2022-09-20T23:06:26.370Z,1.73
2022-09-20T23:08:57.701Z,1.50
2022-09-20T23:11:26.449Z,1.70
2022-09-20T23:13:55.960Z,1.85
2022-09-20T23:16:26.174Z,1.45
2022-09-20T23:18:56.682Z,1.80
2022-09-20T23:21:25.211Z,2.03
2022-09-20T23:23:54.758Z,1.77
2022-09-20T23:26:23.406Z,2.20
2022-09-20T23:28:56.034Z,1.92
2022-09-20T23:31:24.372Z,2.08
2022-09-20T23:33:54.207Z,2.17
2022-09-20T23:36:25.266Z,2.15
2022-09-20T23:38:53.655Z,2.00
2022-09-20T23:41:24.210Z,2.25
2022-09-20T23:43:52.596Z,2.05
2022-09-20T23:46:22.742Z,2.08
2022-09-20T23:48:51.302Z,1.95
2022-09-20T23:51:22.460Z,2.15
2022-09-20T23:53:53.047Z,1.92
2022-09-20T23:56:22.176Z,2.75
2022-09-20T23:58:50.826Z,1.92
